Time;durP1;ratioP1;P1;durP2;ratioP2;P2;SDS_P1;SDS_P2;PMS_P1;PMS_P2;Temp;Humidity;BMP_temperature;BMP_pressure;BME280_temperature;BME280_humidity;BME280_pressure;Samples;Min_cycle;Max_cycle;Signal;HPM_P1;HPM_P2
2024/01/21 00:00:13;;;;;;;17.70;9.87;;;-2.90;99.90;;;;;;5054586;28;20181;-76
2024/01/21 00:02:39;;;;;;;15.07;10.27;;;-3.10;99.90;;;;;;5055274;28;20224;-76
2024/01/21 00:05:06;;;;;;;18.60;11.43;;;-3.00;99.90;;;;;;5066982;28;20185;-76
2024/01/21 00:07:32;;;;;;;16.33;10.57;;;-3.10;99.90;;;;;;5060853;28;20188;-75
2024/01/21 00:09:58;;;;;;;17.97;11.23;;;-3.10;99.90;;;;;;5044186;28;20205;-77
2024/01/21 00:12:24;;;;;;;17.43;11.90;;;-3.10;99.90;;;;;;5036010;28;20177;-78
2024/01/21 00:14:49;;;;;;;22.40;12.47;;;-3.10;99.90;;;;;;5037868;28;20193;-77
2024/01/21 00:17:17;;;;;;;18.30;11.83;;;-3.20;99.90;;;;;;5054221;28;20583;-77
2024/01/21 00:19:42;;;;;;;19.00;12.20;;;-3.10;99.90;;;;;;5054063;28;20172;-77
2024/01/21 00:22:08;;;;;;;20.77;13.10;;;-3.10;99.90;;;;;;5054607;28;20175;-75
2024/01/21 00:24:34;;;;;;;22.93;13.13;;;-3.10;99.90;;;;;;5053391;28;20513;-77
2024/01/21 00:27:00;;;;;;;22.57;13.07;;;-3.30;99.90;;;;;;5055543;28;20275;-78
2024/01/21 00:29:25;;;;;;;22.50;13.83;;;-3.40;99.90;;;;;;5054637;28;20211;-78
2024/01/21 00:31:51;;;;;;;22.83;13.33;;;-3.40;99.90;;;;;;5052547;28;20172;-77
2024/01/21 00:34:17;;;;;;;21.80;14.07;;;-3.40;99.90;;;;;;5055021;28;20176;-77
2024/01/21 00:36:42;;;;;;;19.63;12.90;;;-3.40;99.90;;;;;;5056200;28;20724;-79
2024/01/21 00:39:08;;;;;;;24.23;14.03;;;-3.30;99.90;;;;;;5054601;28;20256;-77
2024/01/21 00:41:34;;;;;;;21.03;13.67;;;-3.30;99.90;;;;;;5054587;28;20333;-78
2024/01/21 00:44:00;;;;;;;19.67;13.43;;;-3.30;99.90;;;;;;5058098;28;20222;-76
2024/01/21 00:46:26;;;;;;;24.37;13.50;;;-3.30;99.90;;;;;;5057639;28;20534;-77
2024/01/21 00:48:51;;;;;;;20.87;13.03;;;-3.30;99.90;;;;;;5055382;28;20200;-76
2024/01/21 00:51:17;;;;;;;21.50;13.53;;;-3.40;99.90;;;;;;5059116;28;20184;-78
2024/01/21 00:53:44;;;;;;;20.23;13.67;;;-3.30;99.90;;;;;;5070298;28;20258;-79
2024/01/21 00:56:10;;;;;;;20.33;12.03;;;-3.30;99.90;;;;;;5070518;28;20192;-78
2024/01/21 00:58:36;;;;;;;22.63;12.70;;;-3.30;99.90;;;;;;5055579;28;20172;-77
2024/01/21 01:01:02;;;;;;;18.93;12.20;;;-3.50;99.90;;;;;;5056060;28;20180;-77
2024/01/21 01:03:28;;;;;;;17.60;12.10;;;-3.10;99.90;;;;;;5054793;28;20204;-78
2024/01/21 01:05:53;;;;;;;17.13;11.57;;;-3.50;99.90;;;;;;5054522;28;20184;-75
2024/01/21 01:08:20;;;;;;;22.87;12.40;;;-3.50;99.90;;;;;;5054141;28;20176;-78
2024/01/21 01:10:46;;;;;;;20.03;11.73;;;-3.50;99.90;;;;;;5058282;28;20179;-76
2024/01/21 01:13:11;;;;;;;16.13;10.97;;;-3.40;99.90;;;;;;5054206;28;20248;-77
2024/01/21 01:15:39;;;;;;;19.73;10.87;;;-3.50;99.90;;;;;;5053642;28;20222;-77
2024/01/21 01:18:05;;;;;;;18.50;10.60;;;-3.50;99.90;;;;;;5053872;28;20183;-77
2024/01/21 01:20:31;;;;;;;21.57;11.40;;;-3.50;99.90;;;;;;5070108;28;20157;-76
2024/01/21 01:22:58;;;;;;;19.10;11.23;;;-3.50;99.90;;;;;;5062175;28;20164;-77
2024/01/21 01:25:26;;;;;;;18.00;11.33;;;-3.70;99.90;;;;;;5053223;28;20177;-78
2024/01/21 01:27:52;;;;;;;20.53;10.83;;;-3.70;99.90;;;;;;5053143;28;20172;-77
2024/01/21 01:30:18;;;;;;;21.77;12.63;;;-3.70;99.90;;;;;;5053397;28;20203;-76
2024/01/21 01:32:45;;;;;;;20.13;12.53;;;-3.80;99.90;;;;;;5053113;28;20233;-76
2024/01/21 01:35:11;;;;;;;22.03;12.17;;;-3.80;99.90;;;;;;5053064;28;20175;-76
2024/01/21 01:37:37;;;;;;;18.87;12.27;;;-3.80;99.90;;;;;;5052745;28;20176;-77
2024/01/21 01:40:03;;;;;;;18.63;12.13;;;-3.80;99.90;;;;;;5052842;28;20642;-76
2024/01/21 01:42:29;;;;;;;19.70;12.23;;;-3.90;99.90;;;;;;5052468;28;20176;-76
2024/01/21 01:44:55;;;;;;;18.90;12.03;;;-3.80;99.90;;;;;;5052468;28;20183;-78
2024/01/21 01:47:22;;;;;;;20.60;12.00;;;-3.80;99.90;;;;;;5052763;28;20643;-77
2024/01/21 01:49:48;;;;;;;22.60;11.97;;;-3.80;99.90;;;;;;5052389;28;20260;-78
2024/01/21 01:52:16;;;;;;;17.77;11.00;;;-3.90;99.90;;;;;;5051659;28;20643;-78
2024/01/21 01:54:44;;;;;;;22.00;12.17;;;-3.90;99.90;;;;;;5060274;28;20173;-76
2024/01/21 01:57:10;;;;;;;17.57;11.50;;;-3.90;99.90;;;;;;5058862;28;20255;-77
2024/01/21 01:59:37;;;;;;;16.03;11.30;;;-4.00;99.90;;;;;;5053327;28;20270;-79
2024/01/21 02:02:05;;;;;;;18.00;11.57;;;-4.00;99.90;;;;;;5051217;28;20176;-76
2024/01/21 02:04:31;;;;;;;17.43;11.10;;;-4.00;99.90;;;;;;5052748;28;20173;-78
2024/01/21 02:06:57;;;;;;;18.50;11.37;;;-4.00;99.90;;;;;;5052261;28;20580;-78
2024/01/21 02:09:23;;;;;;;14.37;9.97;;;-4.00;99.90;;;;;;5051168;28;20211;-79
2024/01/21 02:11:48;;;;;;;13.50;10.10;;;-3.90;99.90;;;;;;5052335;28;20178;-77
2024/01/21 02:14:14;;;;;;;20.63;11.07;;;-4.00;99.90;;;;;;5052264;28;20224;-78
2024/01/21 02:16:40;;;;;;;17.20;10.57;;;-4.10;99.90;;;;;;5051845;28;20258;-77
2024/01/21 02:19:30;;;;;;;14.23;9.73;;;-4.10;99.90;;;;;;5052677;28;20264;-78
2024/01/21 02:21:57;;;;;;;14.90;11.00;;;-4.10;99.90;;;;;;5053403;28;20503;-77
2024/01/21 02:24:30;;;;;;;14.07;9.70;;;-4.10;99.90;;;;;;5054039;28;20590;-77
2024/01/21 02:26:56;;;;;;;15.50;10.83;;;-4.20;99.90;;;;;;5054939;28;20265;-77
2024/01/21 02:29:22;;;;;;;18.60;10.60;;;-4.20;99.90;;;;;;5062501;28;20207;-78
2024/01/21 02:31:47;;;;;;;16.87;10.23;;;-4.20;99.90;;;;;;5056468;28;20187;-77
2024/01/21 02:34:13;;;;;;;15.93;10.67;;;-4.10;99.90;;;;;;5050940;28;20211;-78
2024/01/21 02:36:40;;;;;;;16.33;10.33;;;-4.10;99.90;;;;;;5052408;28;20172;-77
2024/01/21 02:39:06;;;;;;;18.37;10.47;;;-4.00;99.90;;;;;;5052739;28;20184;-76
2024/01/21 02:41:31;;;;;;;15.00;10.27;;;-4.10;99.90;;;;;;5053432;28;20631;-77
2024/01/21 02:43:59;;;;;;;17.07;9.97;;;-4.10;99.90;;;;;;5053978;28;20650;-76
2024/01/21 02:46:24;;;;;;;15.00;10.00;;;-4.00;99.90;;;;;;5052303;28;20183;-77
2024/01/21 02:48:50;;;;;;;15.00;9.63;;;-4.10;99.90;;;;;;5054633;28;20199;-77
2024/01/21 02:51:16;;;;;;;16.20;9.80;;;-4.20;99.90;;;;;;5052106;28;20562;-79
2024/01/21 02:53:41;;;;;;;15.67;9.73;;;-4.20;99.90;;;;;;5051833;28;20176;-77
2024/01/21 02:56:07;;;;;;;16.30;10.00;;;-4.10;99.90;;;;;;5052248;28;20221;-78
2024/01/21 02:58:33;;;;;;;15.43;10.20;;;-4.10;99.90;;;;;;5051753;28;20187;-76
2024/01/21 03:00:59;;;;;;;15.03;9.40;;;-4.10;99.90;;;;;;5051697;28;20277;-78
2024/01/21 03:03:25;;;;;;;14.60;10.00;;;-4.10;99.90;;;;;;5051585;28;20171;-78
2024/01/21 03:05:50;;;;;;;13.57;9.70;;;-4.10;99.90;;;;;;5051768;28;20692;-78
2024/01/21 03:08:16;;;;;;;14.43;8.90;;;-4.10;99.90;;;;;;5051620;28;20624;-79
2024/01/21 03:10:42;;;;;;;12.60;9.20;;;-4.20;99.90;;;;;;5051946;28;20251;-79
2024/01/21 03:13:08;;;;;;;13.80;9.00;;;-4.10;99.90;;;;;;5053166;28;20691;-75
2024/01/21 03:15:33;;;;;;;13.53;9.07;;;-4.20;99.90;;;;;;5052698;28;20584;-78
2024/01/21 03:17:59;;;;;;;15.23;8.93;;;-4.20;99.90;;;;;;5053387;28;20156;-77
2024/01/21 03:20:25;;;;;;;13.67;8.40;;;-4.20;99.90;;;;;;5056132;28;20643;-77
2024/01/21 03:22:51;;;;;;;12.60;9.03;;;-4.20;99.90;;;;;;5051642;28;20176;-77
2024/01/21 03:25:17;;;;;;;9.93;7.43;;;-4.30;99.90;;;;;;5051654;28;20172;-77
2024/01/21 03:27:42;;;;;;;10.83;7.53;;;-4.30;99.90;;;;;;5051969;28;20631;-77
2024/01/21 03:30:09;;;;;;;10.67;7.33;;;-4.30;99.90;;;;;;5056400;28;20215;-77
2024/01/21 03:32:34;;;;;;;8.87;7.50;;;-4.30;99.90;;;;;;5062507;28;20160;-77
2024/01/21 03:35:00;;;;;;;12.63;7.90;;;-4.30;99.90;;;;;;5063950;28;20515;-76
2024/01/21 03:37:26;;;;;;;10.07;7.63;;;-4.30;99.90;;;;;;5060513;28;20655;-78
2024/01/21 03:39:52;;;;;;;10.87;7.37;;;-4.30;99.90;;;;;;5058247;28;20188;-78
2024/01/21 03:42:17;;;;;;;10.23;7.10;;;-4.30;99.90;;;;;;5062971;28;20168;-78
2024/01/21 03:44:43;;;;;;;11.10;7.57;;;-4.40;99.90;;;;;;5060265;28;20206;-80
2024/01/21 03:47:09;;;;;;;9.93;7.30;;;-4.40;99.90;;;;;;5061044;28;20255;-79
2024/01/21 03:49:35;;;;;;;11.63;7.10;;;-4.40;99.90;;;;;;5055422;28;20203;-76
2024/01/21 03:52:00;;;;;;;10.27;7.13;;;-4.40;99.90;;;;;;5055534;28;20180;-77
2024/01/21 03:54:26;;;;;;;11.03;7.40;;;-4.50;99.90;;;;;;5055861;28;20547;-76
2024/01/21 03:56:52;;;;;;;11.60;7.47;;;-4.50;99.90;;;;;;5062850;28;20180;-77
2024/01/21 03:59:17;;;;;;;11.20;6.80;;;-4.50;99.90;;;;;;5070904;28;20186;-77
2024/01/21 04:01:45;;;;;;;14.60;7.87;;;-4.50;99.90;;;;;;5055164;28;20172;-81
2024/01/21 04:04:12;;;;;;;10.90;6.90;;;-4.50;99.90;;;;;;5054916;28;20182;-79
2024/01/21 04:06:42;;;;;;;11.57;7.60;;;-4.50;99.90;;;;;;5056383;28;20178;-76
2024/01/21 04:09:15;;;;;;;10.37;6.80;;;-4.50;99.90;;;;;;5056307;28;20219;-78
2024/01/21 04:11:44;;;;;;;10.73;7.37;;;-4.60;99.90;;;;;;5056346;28;20158;-77
2024/01/21 04:14:10;;;;;;;10.97;6.63;;;-4.70;99.90;;;;;;5054600;28;20175;-75
2024/01/21 04:16:35;;;;;;;8.90;6.47;;;-4.60;99.90;;;;;;5056423;28;20269;-75
2024/01/21 04:19:01;;;;;;;8.93;6.40;;;-4.60;99.90;;;;;;5066294;28;20163;-76
2024/01/21 04:21:27;;;;;;;8.60;6.63;;;-4.50;99.90;;;;;;5055353;28;20218;-78
2024/01/21 04:23:53;;;;;;;10.10;6.90;;;-4.60;99.90;;;;;;5056467;28;20179;-79
2024/01/21 04:26:19;;;;;;;9.70;7.13;;;-4.50;99.90;;;;;;5057982;28;20168;-78
2024/01/21 04:28:45;;;;;;;11.33;7.20;;;-4.60;99.90;;;;;;5054951;28;20749;-77
2024/01/21 04:31:10;;;;;;;11.20;7.13;;;-4.60;99.90;;;;;;5056387;28;20309;-79
2024/01/21 04:33:37;;;;;;;12.00;7.57;;;-4.60;99.90;;;;;;5053973;28;20213;-76
2024/01/21 04:36:03;;;;;;;9.17;6.67;;;-4.50;99.90;;;;;;5054212;28;20202;-77
2024/01/21 04:38:28;;;;;;;9.27;7.10;;;-4.50;99.90;;;;;;5054563;28;20168;-80
2024/01/21 04:40:54;;;;;;;10.87;6.70;;;-4.60;99.90;;;;;;5053431;28;20178;-77
2024/01/21 04:43:20;;;;;;;10.57;7.87;;;-4.60;99.90;;;;;;5053959;28;20180;-79
2024/01/21 04:45:46;;;;;;;10.97;7.00;;;-4.60;99.90;;;;;;5054001;28;20530;-78
2024/01/21 04:48:11;;;;;;;11.63;7.27;;;-4.50;99.90;;;;;;5054791;28;20168;-80
2024/01/21 04:50:37;;;;;;;10.37;6.97;;;-4.50;99.90;;;;;;5055149;28;20663;-79
2024/01/21 04:53:03;;;;;;;8.53;6.40;;;-4.50;99.90;;;;;;5054508;28;20647;-77
2024/01/21 04:55:29;;;;;;;6.57;5.83;;;-4.60;99.90;;;;;;5056586;28;20168;-79
2024/01/21 04:57:54;;;;;;;8.20;6.70;;;-4.60;99.90;;;;;;5054032;28;20635;-78
2024/01/21 05:00:20;;;;;;;8.60;6.80;;;-4.60;99.90;;;;;;5054521;28;20712;-78
2024/01/21 05:02:46;;;;;;;8.97;6.30;;;-4.60;99.90;;;;;;5058187;28;20179;-77
2024/01/21 05:05:12;;;;;;;10.33;6.93;;;-4.60;99.90;;;;;;5070025;28;20188;-76
2024/01/21 05:07:37;;;;;;;10.83;6.47;;;-4.50;99.90;;;;;;5062724;28;20259;-77
2024/01/21 05:10:04;;;;;;;9.73;6.33;;;-4.60;99.90;;;;;;5064173;28;20231;-78
2024/01/21 05:12:29;;;;;;;9.23;6.67;;;-4.70;99.90;;;;;;5063389;28;20206;-77
2024/01/21 05:14:56;;;;;;;11.50;6.70;;;-4.70;99.90;;;;;;5065891;28;20176;-77
2024/01/21 05:17:22;;;;;;;7.90;6.20;;;-4.60;99.90;;;;;;5066402;28;20235;-78
2024/01/21 05:19:47;;;;;;;9.90;6.93;;;-4.70;99.90;;;;;;5061391;28;20163;-78
2024/01/21 05:22:13;;;;;;;9.43;6.30;;;-4.70;99.90;;;;;;5054845;28;20164;-79
2024/01/21 05:24:39;;;;;;;8.67;6.10;;;-4.70;99.90;;;;;;5055198;28;20172;-76
2024/01/21 05:27:04;;;;;;;12.90;6.43;;;-4.70;99.90;;;;;;5063532;28;20177;-78
2024/01/21 05:29:30;;;;;;;12.77;6.90;;;-4.70;99.90;;;;;;5051989;28;20211;-77
2024/01/21 05:31:56;;;;;;;9.67;6.77;;;-4.70;99.90;;;;;;5057606;28;20191;-79
2024/01/21 05:34:22;;;;;;;10.77;7.27;;;-4.70;99.90;;;;;;5071950;28;20206;-81
2024/01/21 05:36:48;;;;;;;10.03;6.30;;;-4.70;99.90;;;;;;5053227;28;20229;-78
2024/01/21 05:39:14;;;;;;;11.80;6.50;;;-4.60;99.90;;;;;;5051483;28;20186;-78
2024/01/21 05:41:40;;;;;;;8.63;6.83;;;-4.60;99.90;;;;;;5053382;28;20558;-79
2024/01/21 05:44:06;;;;;;;8.83;6.57;;;-4.60;99.90;;;;;;5054471;28;20182;-77
2024/01/21 05:46:32;;;;;;;11.07;7.00;;;-4.60;99.90;;;;;;5052549;28;20267;-77
2024/01/21 05:48:58;;;;;;;7.53;5.97;;;-4.60;99.90;;;;;;5052558;28;20638;-76
2024/01/21 05:51:24;;;;;;;9.17;6.50;;;-4.70;99.90;;;;;;5051958;28;20191;-79
2024/01/21 05:53:50;;;;;;;8.53;5.63;;;-4.70;99.90;;;;;;5065309;28;20176;-78
2024/01/21 05:56:19;;;;;;;8.53;6.07;;;-4.70;99.90;;;;;;5069245;28;20180;-78
2024/01/21 05:58:44;;;;;;;10.03;6.53;;;-4.80;99.90;;;;;;5055204;28;20168;-79
2024/01/21 06:01:10;;;;;;;9.77;6.67;;;-4.80;99.90;;;;;;5052604;28;20190;-78
2024/01/21 06:03:36;;;;;;;8.53;5.97;;;-4.90;99.90;;;;;;5052640;28;20174;-75
2024/01/21 06:06:03;;;;;;;8.80;6.00;;;-4.90;99.90;;;;;;5056070;28;20183;-76
2024/01/21 06:08:29;;;;;;;9.20;6.43;;;-4.90;99.90;;;;;;5056727;28;20172;-78
2024/01/21 06:10:55;;;;;;;9.30;6.83;;;-5.00;99.90;;;;;;5052344;28;20510;-77
2024/01/21 06:13:20;;;;;;;9.40;7.37;;;-4.90;99.90;;;;;;5052664;28;20217;-77
2024/01/21 06:15:46;;;;;;;12.57;7.17;;;-4.90;99.90;;;;;;5052347;28;20219;-79
2024/01/21 06:18:12;;;;;;;12.67;7.53;;;-4.90;99.90;;;;;;5054408;28;20215;-78
2024/01/21 06:20:38;;;;;;;6.77;6.00;;;-4.90;99.90;;;;;;5056068;28;20552;-78
2024/01/21 06:23:04;;;;;;;12.30;6.93;;;-4.90;99.90;;;;;;5054970;28;20175;-78
2024/01/21 06:25:29;;;;;;;8.27;6.30;;;-4.90;99.90;;;;;;5053809;28;20175;-77
2024/01/21 06:27:55;;;;;;;10.87;7.63;;;-4.90;99.90;;;;;;5056340;28;20196;-78
2024/01/21 06:30:22;;;;;;;10.10;6.77;;;-4.90;99.90;;;;;;5059366;28;20208;-77
2024/01/21 06:32:48;;;;;;;10.53;6.70;;;-4.90;99.90;;;;;;5058865;28;20167;-76
2024/01/21 06:35:14;;;;;;;10.37;6.43;;;-5.00;99.90;;;;;;5061433;28;20275;-78
2024/01/21 06:37:40;;;;;;;10.33;7.03;;;-5.00;99.90;;;;;;5061785;28;20199;-77
2024/01/21 06:40:07;;;;;;;7.13;6.50;;;-5.10;99.90;;;;;;5059896;28;20179;-78
2024/01/21 06:42:33;;;;;;;9.07;6.10;;;-5.00;99.90;;;;;;5052999;28;20180;-78
2024/01/21 06:45:00;;;;;;;10.03;7.17;;;-5.00;99.90;;;;;;5042910;28;20181;-76
2024/01/21 06:47:26;;;;;;;9.60;6.77;;;-5.00;99.90;;;;;;5038756;28;20180;-75
2024/01/21 06:49:52;;;;;;;11.70;6.63;;;-5.00;99.90;;;;;;5039934;28;20252;-76
2024/01/21 06:52:17;;;;;;;9.33;7.03;;;-5.00;99.90;;;;;;5050630;28;20708;-77
2024/01/21 06:54:43;;;;;;;13.50;7.30;;;-5.00;99.90;;;;;;5052527;28;20185;-76
2024/01/21 06:57:09;;;;;;;10.47;7.70;;;-5.00;99.90;;;;;;5060347;28;20246;-76
2024/01/21 06:59:35;;;;;;;11.20;7.33;;;-5.00;99.90;;;;;;5071712;28;20183;-78
2024/01/21 07:02:00;;;;;;;9.27;6.67;;;-5.00;99.90;;;;;;5068888;28;20186;-78
2024/01/21 07:04:26;;;;;;;8.30;6.23;;;-5.00;99.90;;;;;;5060954;28;20231;-76
2024/01/21 07:06:52;;;;;;;9.47;6.40;;;-5.00;99.90;;;;;;5060671;28;20183;-78
2024/01/21 07:09:18;;;;;;;8.60;5.80;;;-5.00;99.90;;;;;;5056865;28;20235;-78
2024/01/21 07:11:44;;;;;;;9.00;6.23;;;-4.90;99.90;;;;;;5055630;28;20631;-77
2024/01/21 07:14:09;;;;;;;11.83;5.90;;;-4.90;99.90;;;;;;5056287;28;20203;-79
2024/01/21 07:16:35;;;;;;;8.03;5.60;;;-4.80;99.90;;;;;;5055414;28;20223;-78
2024/01/21 07:19:01;;;;;;;6.03;5.23;;;-4.90;99.90;;;;;;5057275;28;20272;-75
2024/01/21 07:21:27;;;;;;;10.33;6.20;;;-4.90;99.90;;;;;;5058675;28;20176;-78
2024/01/21 07:23:56;;;;;;;11.73;6.80;;;-4.90;99.90;;;;;;5071452;28;20176;-78
2024/01/21 07:26:23;;;;;;;8.57;5.70;;;-4.80;99.90;;;;;;5046133;28;20212;-77
2024/01/21 07:28:49;;;;;;;12.60;6.37;;;-4.80;99.90;;;;;;5032625;28;20972;-76
2024/01/21 07:31:17;;;;;;;7.37;5.23;;;-4.80;99.90;;;;;;5048883;28;20187;-76
2024/01/21 07:33:44;;;;;;;6.90;5.50;;;-4.80;99.90;;;;;;5053717;28;20171;-76
2024/01/21 07:36:11;;;;;;;8.57;5.47;;;-4.90;99.90;;;;;;5054989;28;20517;-78
2024/01/21 07:38:37;;;;;;;8.50;5.43;;;-4.80;99.90;;;;;;5053682;28;20190;-76
2024/01/21 07:41:03;;;;;;;7.03;4.97;;;-4.80;99.90;;;;;;5056596;28;20237;-78
2024/01/21 07:43:30;;;;;;;6.60;4.67;;;-4.80;99.90;;;;;;5056048;28;20238;-76
2024/01/21 07:45:56;;;;;;;10.43;4.87;;;-4.80;99.90;;;;;;5054025;28;20263;-78
2024/01/21 07:48:21;;;;;;;5.70;5.20;;;-4.70;99.90;;;;;;5055427;28;20779;-75
2024/01/21 07:50:48;;;;;;;5.67;5.07;;;-4.70;99.90;;;;;;5057059;28;20261;-75
2024/01/21 07:53:14;;;;;;;7.10;5.03;;;-4.70;99.90;;;;;;5071007;28;20670;-77
2024/01/21 07:55:40;;;;;;;7.07;5.50;;;-4.70;99.90;;;;;;5069767;28;20187;-78
2024/01/21 07:58:06;;;;;;;7.07;5.03;;;-4.60;99.90;;;;;;5074901;28;20171;-78
2024/01/21 08:00:31;;;;;;;6.70;5.13;;;-4.60;99.90;;;;;;5063652;28;20230;-79
2024/01/21 08:02:57;;;;;;;9.30;5.70;;;-4.60;99.90;;;;;;5055437;28;20262;-78
2024/01/21 08:05:23;;;;;;;7.73;5.17;;;-4.50;99.90;;;;;;5054894;28;20184;-78
2024/01/21 08:07:49;;;;;;;8.43;6.10;;;-4.50;99.90;;;;;;5054637;28;20168;-75
2024/01/21 08:10:14;;;;;;;6.97;5.57;;;-4.50;99.90;;;;;;5054266;28;20265;-78
2024/01/21 08:12:40;;;;;;;5.77;5.17;;;-4.50;99.90;;;;;;5054726;28;20190;-78
2024/01/21 08:15:06;;;;;;;7.30;6.53;;;-4.40;99.90;;;;;;5052858;28;20191;-77
2024/01/21 08:17:33;;;;;;;9.03;6.30;;;-4.30;99.90;;;;;;5057234;28;20236;-82
2024/01/21 08:19:59;;;;;;;8.20;5.83;;;-4.30;99.90;;;;;;5061167;28;20561;-78
2024/01/21 08:22:25;;;;;;;8.70;6.63;;;-4.20;99.90;;;;;;5064656;28;20184;-78
2024/01/21 08:24:54;;;;;;;7.30;5.97;;;-4.20;99.90;;;;;;5054281;28;20183;-79
2024/01/21 08:27:21;;;;;;;11.60;8.23;;;-4.30;99.90;;;;;;5053318;28;20412;-79
2024/01/21 08:29:47;;;;;;;11.57;7.73;;;-4.60;99.90;;;;;;5053035;28;20440;-79
2024/01/21 08:32:12;;;;;;;8.07;6.07;;;-4.50;99.90;;;;;;5057108;28;20615;-76
2024/01/21 08:34:38;;;;;;;8.23;6.03;;;-4.30;99.90;;;;;;5068309;28;20198;-76
2024/01/21 08:37:04;;;;;;;7.00;5.53;;;-4.40;99.90;;;;;;5070057;28;20176;-79
2024/01/21 08:39:31;;;;;;;9.53;6.13;;;-4.30;99.90;;;;;;5054697;28;20176;-75
2024/01/21 08:41:57;;;;;;;7.87;6.17;;;-4.20;99.90;;;;;;5053080;28;20569;-75
2024/01/21 08:44:23;;;;;;;7.33;5.57;;;-4.10;99.90;;;;;;5053936;28;20253;-75
2024/01/21 08:46:49;;;;;;;8.20;5.67;;;-3.90;99.90;;;;;;5053978;28;20175;-76
2024/01/21 08:52:18;;;;;;;6.90;6.20;;;-3.70;99.90;;;;;;5090748;27;21086;-75
2024/01/21 08:54:44;;;;;;;12.57;8.23;;;-3.60;99.90;;;;;;5089738;28;20243;-77
2024/01/21 08:57:11;;;;;;;10.40;6.97;;;-3.60;99.90;;;;;;5090345;28;20261;-76
2024/01/21 08:59:37;;;;;;;11.30;6.37;;;-3.50;99.90;;;;;;5094389;28;20187;-77
2024/01/21 09:02:03;;;;;;;7.10;5.87;;;-3.70;99.90;;;;;;5089866;28;20699;-76
2024/01/21 09:04:29;;;;;;;14.17;8.43;;;-3.80;99.90;;;;;;5087782;28;20220;-75
2024/01/21 09:06:54;;;;;;;14.00;8.57;;;-3.80;99.90;;;;;;5104647;28;20186;-77
2024/01/21 09:09:20;;;;;;;14.63;9.43;;;-3.70;99.90;;;;;;5109601;28;20170;-76
2024/01/21 09:11:47;;;;;;;11.80;8.33;;;-3.60;99.90;;;;;;5109743;28;20292;-75
2024/01/21 09:14:13;;;;;;;11.77;7.73;;;-3.60;99.90;;;;;;5112266;28;20174;-80
2024/01/21 09:16:39;;;;;;;12.97;7.60;;;-3.50;99.90;;;;;;5115386;28;20536;-78
2024/01/21 09:19:05;;;;;;;10.43;7.73;;;-3.30;99.90;;;;;;5112648;28;20170;-75
2024/01/21 09:21:33;;;;;;;13.50;7.83;;;-3.10;99.90;;;;;;5108756;28;20199;-76
2024/01/21 09:24:03;;;;;;;10.43;7.73;;;-3.20;99.90;;;;;;5109267;28;20190;-77
2024/01/21 09:26:29;;;;;;;13.33;8.10;;;-3.20;99.90;;;;;;5108633;28;20193;-76
2024/01/21 09:28:55;;;;;;;12.27;8.20;;;-2.90;99.90;;;;;;5108938;28;20171;-75
2024/01/21 09:31:21;;;;;;;11.33;7.57;;;-2.90;99.90;;;;;;5108731;28;20538;-78
2024/01/21 09:33:46;;;;;;;14.17;8.53;;;-2.80;99.90;;;;;;5109274;28;20664;-77
2024/01/21 09:36:14;;;;;;;13.53;7.70;;;-2.60;99.90;;;;;;5100828;28;20203;-76
2024/01/21 09:38:39;;;;;;;8.17;6.67;;;-2.60;99.90;;;;;;5092230;28;20199;-78
2024/01/21 09:41:15;;;;;;;9.67;7.03;;;-2.50;99.90;;;;;;5091701;28;20202;-77
2024/01/21 09:43:44;;;;;;;11.80;7.27;;;-2.30;99.90;;;;;;5088596;28;20160;-77
2024/01/21 09:46:13;;;;;;;9.50;6.97;;;-2.30;99.90;;;;;;5086644;28;20185;-75
2024/01/21 09:48:39;;;;;;;13.00;8.10;;;-2.30;99.90;;;;;;5088408;28;20176;-78
2024/01/21 09:51:06;;;;;;;19.57;7.90;;;-2.30;99.90;;;;;;5087360;28;20765;-76
2024/01/21 09:53:33;;;;;;;9.40;6.57;;;-2.30;99.90;;;;;;5088040;28;20178;-76
2024/01/21 09:56:07;;;;;;;9.50;6.17;;;-2.30;99.90;;;;;;5088235;28;20211;-75
2024/01/21 09:58:51;;;;;;;11.17;6.30;;;-2.20;99.90;;;;;;5088410;28;20174;-78
2024/01/21 10:01:17;;;;;;;9.20;5.90;;;-2.10;99.90;;;;;;5088090;28;20192;-77
2024/01/21 10:03:46;;;;;;;10.30;6.47;;;-2.10;99.90;;;;;;5074198;28;20601;-77
2024/01/21 10:06:12;;;;;;;7.63;5.73;;;-2.10;99.90;;;;;;5077645;28;20193;-75
2024/01/21 10:08:39;;;;;;;7.30;5.80;;;-2.00;99.90;;;;;;5087334;28;20218;-75
2024/01/21 10:11:06;;;;;;;8.67;6.33;;;-1.90;99.90;;;;;;5093514;28;20276;-77
2024/01/21 10:13:34;;;;;;;12.70;6.87;;;-1.80;99.90;;;;;;5096799;28;20167;-75
2024/01/21 10:16:00;;;;;;;7.40;6.07;;;-1.90;99.90;;;;;;5095177;28;20176;-76
2024/01/21 10:18:28;;;;;;;8.07;6.30;;;-1.90;99.90;;;;;;5099858;28;20172;-77
2024/01/21 10:20:56;;;;;;;10.87;5.73;;;-1.90;99.90;;;;;;5100288;28;20179;-77
2024/01/21 10:23:21;;;;;;;10.50;5.70;;;-1.80;99.90;;;;;;5095057;28;20169;-76
2024/01/21 10:25:48;;;;;;;7.97;6.43;;;-1.70;99.90;;;;;;5093202;28;20661;-76
2024/01/21 10:28:15;;;;;;;9.47;7.00;;;-1.50;99.90;;;;;;5094052;28;20184;-74
2024/01/21 10:30:44;;;;;;;6.93;5.63;;;-1.40;99.90;;;;;;5092983;28;20199;-77
2024/01/21 10:33:11;;;;;;;9.63;5.67;;;-1.30;99.90;;;;;;5094590;28;20181;-76
2024/01/21 10:35:37;;;;;;;9.40;6.63;;;-1.30;99.90;;;;;;5094164;28;20169;-76
2024/01/21 10:38:05;;;;;;;11.07;6.07;;;-1.30;99.90;;;;;;5093756;28;20280;-79
2024/01/21 10:40:31;;;;;;;7.10;6.00;;;-1.20;99.90;;;;;;5094462;28;20180;-76
2024/01/21 10:42:59;;;;;;;7.20;5.50;;;-1.10;99.90;;;;;;5093844;28;20168;-76
2024/01/21 10:45:26;;;;;;;11.03;6.13;;;-1.00;99.90;;;;;;5094018;28;20270;-77
2024/01/21 10:47:53;;;;;;;9.70;5.53;;;-0.90;99.90;;;;;;5092459;28;20184;-81
2024/01/21 10:50:21;;;;;;;8.60;6.10;;;-0.90;99.90;;;;;;5100476;28;20583;-79
2024/01/21 10:52:48;;;;;;;7.37;5.87;;;-0.90;99.90;;;;;;5098471;28;20189;-79
2024/01/21 10:55:14;;;;;;;11.70;5.87;;;-0.80;99.90;;;;;;5094030;28;20173;-76
2024/01/21 10:57:40;;;;;;;11.53;6.03;;;-0.70;99.90;;;;;;5093330;28;20737;-78
2024/01/21 11:00:09;;;;;;;9.87;5.90;;;-0.60;99.90;;;;;;5079741;28;20183;-76
2024/01/21 11:02:35;;;;;;;8.93;6.27;;;-0.50;99.90;;;;;;5086378;28;20182;-77
2024/01/21 11:05:01;;;;;;;6.90;5.77;;;-0.40;99.90;;;;;;5093593;28;20177;-76
2024/01/21 11:07:27;;;;;;;9.20;5.93;;;-0.20;99.90;;;;;;5093749;28;20183;-75
2024/01/21 11:09:57;;;;;;;9.77;5.77;;;-0.10;99.90;;;;;;5094363;28;20170;-79
2024/01/21 11:12:23;;;;;;;8.43;5.10;;;0.00;99.90;;;;;;5100063;28;20188;-79
2024/01/21 11:14:50;;;;;;;10.97;5.10;;;0.10;99.90;;;;;;5093414;28;20628;-76
2024/01/21 11:17:22;;;;;;;6.70;5.10;;;0.20;99.90;;;;;;5093352;28;20201;-78
2024/01/21 11:19:48;;;;;;;10.30;5.80;;;0.10;99.90;;;;;;5092770;28;20169;-77
2024/01/21 11:22:14;;;;;;;11.13;5.70;;;0.20;99.40;;;;;;5093295;28;20232;-77
2024/01/21 11:24:41;;;;;;;11.00;5.93;;;0.30;99.60;;;;;;5092924;28;20665;-77
2024/01/21 11:27:28;;;;;;;8.93;5.43;;;0.30;99.40;;;;;;5092979;28;20217;-76
2024/01/21 11:30:01;;;;;;;6.63;5.00;;;0.30;99.30;;;;;;5093305;28;20173;-75
2024/01/21 11:32:31;;;;;;;6.57;5.43;;;0.40;99.80;;;;;;5093432;28;20217;-76
2024/01/21 11:35:08;;;;;;;6.40;5.33;;;0.40;99.90;;;;;;5095609;28;20185;-75
2024/01/21 11:37:34;;;;;;;6.03;5.43;;;0.60;99.60;;;;;;5094315;28;20207;-77
2024/01/21 11:40:03;;;;;;;6.20;5.30;;;0.60;99.60;;;;;;5094399;28;20176;-76
2024/01/21 11:42:32;;;;;;;5.83;5.03;;;0.70;98.70;;;;;;5093157;28;20179;-77
2024/01/21 11:45:05;;;;;;;7.40;5.57;;;0.80;98.70;;;;;;5093139;28;20184;-76
2024/01/21 11:47:31;;;;;;;7.20;5.73;;;0.80;98.00;;;;;;5092479;28;20210;-77
2024/01/21 11:49:59;;;;;;;6.57;5.27;;;0.90;98.40;;;;;;5092646;28;20705;-76
2024/01/21 11:52:24;;;;;;;9.43;5.77;;;0.90;97.50;;;;;;5091729;28;20185;-78
2024/01/21 11:54:51;;;;;;;6.00;5.43;;;1.00;98.20;;;;;;5092853;28;20332;-75
2024/01/21 11:57:19;;;;;;;5.23;4.47;;;1.00;98.00;;;;;;5092865;28;20186;-76
2024/01/21 11:59:45;;;;;;;8.90;4.67;;;1.10;98.50;;;;;;5092902;28;20194;-76
2024/01/21 12:02:12;;;;;;;5.90;5.27;;;1.10;97.50;;;;;;5093090;28;20680;-76
2024/01/21 12:04:38;;;;;;;7.30;4.80;;;1.20;96.70;;;;;;5092583;28;20679;-76
2024/01/21 12:07:04;;;;;;;4.87;4.47;;;1.30;97.80;;;;;;5091134;28;20590;-75
2024/01/21 12:09:31;;;;;;;5.57;4.23;;;1.20;97.20;;;;;;5093610;28;20209;-79
2024/01/21 12:11:58;;;;;;;7.07;4.43;;;1.20;96.80;;;;;;5095149;28;20205;-76
2024/01/21 12:14:25;;;;;;;6.70;5.00;;;1.20;96.30;;;;;;5091728;28;20203;-78
2024/01/21 12:16:53;;;;;;;7.07;4.90;;;1.20;96.10;;;;;;5092351;28;20531;-74
2024/01/21 12:19:19;;;;;;;7.10;4.47;;;1.30;96.20;;;;;;5092112;28;20209;-76
2024/01/21 12:21:46;;;;;;;7.80;4.73;;;1.30;95.80;;;;;;5092380;28;20220;-78
2024/01/21 12:24:12;;;;;;;5.50;4.77;;;1.30;95.30;;;;;;5092360;28;20541;-77
2024/01/21 12:26:37;;;;;;;5.10;4.60;;;1.30;95.30;;;;;;5092958;28;20204;-77
2024/01/21 12:29:08;;;;;;;6.60;4.63;;;1.30;95.70;;;;;;5091893;28;20812;-77
2024/01/21 12:31:36;;;;;;;4.73;4.27;;;1.30;95.20;;;;;;5090478;28;20639;-76
2024/01/21 12:34:06;;;;;;;6.20;4.57;;;1.40;94.90;;;;;;5090835;28;20546;-75
2024/01/21 12:36:40;;;;;;;4.80;4.17;;;1.40;95.10;;;;;;5091937;28;20184;-77
2024/01/21 12:39:09;;;;;;;6.03;4.17;;;1.50;94.30;;;;;;5090946;28;20185;-74